sensor_id;sensor_type;location;lat;lon;timestamp;pressure;altitude;pressure_sealevel;temperature;humidity
49341;BME280;35209;51.050;13.678;2023-05-25T00:00:25;100670.78;;;8.70;88.94
49341;BME280;35209;51.050;13.678;2023-05-25T00:05:28;100672.81;;;8.48;89.46
49341;BME280;35209;51.050;13.678;2023-05-25T00:10:29;100664.50;;;8.13;92.43
49341;BME280;35209;51.050;13.678;2023-05-25T00:15:31;100668.31;;;7.82;95.71
49341;BME280;35209;51.050;13.678;2023-05-25T00:20:33;100671.50;;;8.09;92.96
49341;BME280;35209;51.050;13.678;2023-05-25T00:25:35;100675.19;;;7.91;94.86
49341;BME280;35209;51.050;13.678;2023-05-25T00:30:37;100678.84;;;7.79;95.75
49341;BME280;35209;51.050;13.678;2023-05-25T00:35:38;100669.31;;;7.71;96.96
49341;BME280;35209;51.050;13.678;2023-05-25T00:40:43;100676.25;;;7.76;97.41
49341;BME280;35209;51.050;13.678;2023-05-25T00:45:46;100674.41;;;7.83;95.62
49341;BME280;35209;51.050;13.678;2023-05-25T00:50:53;100669.75;;;8.09;94.91
49341;BME280;35209;51.050;13.678;2023-05-25T00:56:09;100656.63;;;8.14;92.29
49341;BME280;35209;51.050;13.678;2023-05-25T01:01:14;100664.59;;;8.03;93.16
49341;BME280;35209;51.050;13.678;2023-05-25T01:06:16;100666.69;;;7.72;95.11
49341;BME280;35209;51.050;13.678;2023-05-25T01:11:25;100676.53;;;7.44;98.70
49341;BME280;35209;51.050;13.678;2023-05-25T01:16:28;100673.66;;;7.72;96.80
49341;BME280;35209;51.050;13.678;2023-05-25T01:21:57;100673.66;;;7.72;95.11
49341;BME280;35209;51.050;13.678;2023-05-25T01:27:27;100682.84;;;7.19;98.99
49341;BME280;35209;51.050;13.678;2023-05-25T01:32:33;100693.38;;;7.10;99.65
49341;BME280;35209;51.050;13.678;2023-05-25T01:37:36;100693.00;;;7.55;96.45
49341;BME280;35209;51.050;13.678;2023-05-25T01:42:38;100688.72;;;7.47;96.95
49341;BME280;35209;51.050;13.678;2023-05-25T01:53:12;100687.19;;;7.20;99.53
49341;BME280;35209;51.050;13.678;2023-05-25T01:58:17;100682.06;;;7.09;100.00
49341;BME280;35209;51.050;13.678;2023-05-25T02:03:20;100686.25;;;7.31;99.19
49341;BME280;35209;51.050;13.678;2023-05-25T02:08:22;100684.44;;;7.37;97.32
49341;BME280;35209;51.050;13.678;2023-05-25T02:13:24;100691.66;;;7.02;98.95
49341;BME280;35209;51.050;13.678;2023-05-25T02:18:26;100690.94;;;6.80;100.00
49341;BME280;35209;51.050;13.678;2023-05-25T02:23:29;100697.09;;;6.72;100.00
49341;BME280;35209;51.050;13.678;2023-05-25T02:28:30;100708.28;;;6.95;100.00
49341;BME280;35209;51.050;13.678;2023-05-25T02:33:32;100708.34;;;6.85;100.00
49341;BME280;35209;51.050;13.678;2023-05-25T02:38:34;100711.00;;;6.75;100.00
49341;BME280;35209;51.050;13.678;2023-05-25T02:43:36;100718.75;;;6.95;99.96
49341;BME280;35209;51.050;13.678;2023-05-25T02:48:38;100706.66;;;6.77;100.00
49341;BME280;35209;51.050;13.678;2023-05-25T02:53:40;100711.66;;;7.14;98.05
49341;BME280;35209;51.050;13.678;2023-05-25T02:58:42;100723.97;;;6.95;99.43
49341;BME280;35209;51.050;13.678;2023-05-25T03:03:46;100720.66;;;6.63;100.00
49341;BME280;35209;51.050;13.678;2023-05-25T03:08:53;100717.22;;;6.45;100.00
49341;BME280;35209;51.050;13.678;2023-05-25T03:13:55;100720.75;;;6.43;100.00
49341;BME280;35209;51.050;13.678;2023-05-25T03:18:57;100730.16;;;6.73;100.00
49341;BME280;35209;51.050;13.678;2023-05-25T03:23:59;100738.91;;;6.67;100.00
49341;BME280;35209;51.050;13.678;2023-05-25T03:29:01;100733.56;;;6.93;100.00
49341;BME280;35209;51.050;13.678;2023-05-25T03:34:03;100738.88;;;6.78;100.00
49341;BME280;35209;51.050;13.678;2023-05-25T03:39:07;100740.53;;;6.96;100.00
49341;BME280;35209;51.050;13.678;2023-05-25T03:44:10;100738.84;;;6.79;100.00
49341;BME280;35209;51.050;13.678;2023-05-25T03:49:13;100756.97;;;7.15;100.00
49341;BME280;35209;51.050;13.678;2023-05-25T03:54:15;100762.97;;;7.26;100.00
49341;BME280;35209;51.050;13.678;2023-05-25T03:59:17;100764.69;;;7.30;100.00
49341;BME280;35209;51.050;13.678;2023-05-25T04:04:20;100774.38;;;7.17;100.00
49341;BME280;35209;51.050;13.678;2023-05-25T04:09:22;100763.94;;;7.14;100.00
49341;BME280;35209;51.050;13.678;2023-05-25T04:14:24;100769.97;;;7.24;100.00
49341;BME280;35209;51.050;13.678;2023-05-25T04:19:26;100782.91;;;7.42;100.00
49341;BME280;35209;51.050;13.678;2023-05-25T04:24:28;100784.63;;;7.49;100.00
49341;BME280;35209;51.050;13.678;2023-05-25T04:29:30;100783.50;;;7.81;100.00
49341;BME280;35209;51.050;13.678;2023-05-25T04:34:53;100775.53;;;7.95;99.23
49341;BME280;35209;51.050;13.678;2023-05-25T04:40:02;100778.75;;;8.21;96.90
49341;BME280;35209;51.050;13.678;2023-05-25T04:45:09;100779.25;;;8.58;94.40
49341;BME280;35209;51.050;13.678;2023-05-25T04:50:11;100778.19;;;8.75;93.10
49341;BME280;35209;51.050;13.678;2023-05-25T04:55:13;100782.75;;;8.57;93.83
49341;BME280;35209;51.050;13.678;2023-05-25T05:00:18;100774.06;;;8.54;93.21
49341;BME280;35209;51.050;13.678;2023-05-25T05:05:22;100765.84;;;8.83;91.72
49341;BME280;35209;51.050;13.678;2023-05-25T05:10:25;100762.84;;;9.10;90.96
49341;BME280;35209;51.050;13.678;2023-05-25T05:15:30;100765.34;;;9.21;89.86
49341;BME280;35209;51.050;13.678;2023-05-25T05:20:33;100762.66;;;9.26;89.54
49341;BME280;35209;51.050;13.678;2023-05-25T05:25:36;100762.09;;;9.59;88.54
49341;BME280;35209;51.050;13.678;2023-05-25T05:30:39;100763.31;;;9.91;86.35
49341;BME280;35209;51.050;13.678;2023-05-25T05:35:42;100776.94;;;10.13;86.62
49341;BME280;35209;51.050;13.678;2023-05-25T05:40:52;100779.69;;;10.98;80.81
49341;BME280;35209;51.050;13.678;2023-05-25T05:45:56;100778.84;;;11.35;79.09
49341;BME280;35209;51.050;13.678;2023-05-25T05:50:58;100778.13;;;11.66;76.26
49341;BME280;35209;51.050;13.678;2023-05-25T05:56:01;100780.91;;;12.31;74.01
49341;BME280;35209;51.050;13.678;2023-05-25T06:01:06;100782.25;;;13.06;70.29
49341;BME280;35209;51.050;13.678;2023-05-25T06:06:09;100790.81;;;13.97;65.43
49341;BME280;35209;51.050;13.678;2023-05-25T06:11:12;100777.19;;;14.09;65.37
49341;BME280;35209;51.050;13.678;2023-05-25T06:16:15;100790.13;;;14.42;64.42
49341;BME280;35209;51.050;13.678;2023-05-25T06:21:17;100788.84;;;14.29;63.75
49341;BME280;35209;51.050;13.678;2023-05-25T06:26:21;100773.97;;;14.26;63.86
49341;BME280;35209;51.050;13.678;2023-05-25T06:31:25;100779.66;;;14.66;62.61
49341;BME280;35209;51.050;13.678;2023-05-25T06:36:27;100782.81;;;14.75;62.15
49341;BME280;35209;51.050;13.678;2023-05-25T06:41:29;100782.75;;;15.46;58.51
49341;BME280;35209;51.050;13.678;2023-05-25T06:46:32;100782.94;;;15.85;58.71
49341;BME280;35209;51.050;13.678;2023-05-25T06:51:34;100783.75;;;16.07;58.88
49341;BME280;35209;51.050;13.678;2023-05-25T06:56:36;100786.06;;;16.35;57.64
49341;BME280;35209;51.050;13.678;2023-05-25T07:01:38;100789.50;;;16.78;55.07
49341;BME280;35209;51.050;13.678;2023-05-25T07:06:40;100789.91;;;16.69;56.19
49341;BME280;35209;51.050;13.678;2023-05-25T07:11:42;100785.69;;;16.63;56.08
49341;BME280;35209;51.050;13.678;2023-05-25T07:16:44;100786.44;;;16.67;56.00
49341;BME280;35209;51.050;13.678;2023-05-25T07:21:46;100802.31;;;16.48;56.73
49341;BME280;35209;51.050;13.678;2023-05-25T07:26:48;100789.88;;;16.30;58.84
49341;BME280;35209;51.050;13.678;2023-05-25T07:31:50;100790.03;;;16.46;57.17
49341;BME280;35209;51.050;13.678;2023-05-25T07:36:52;100787.47;;;16.44;54.07
49341;BME280;35209;51.050;13.678;2023-05-25T07:41:55;100777.66;;;17.04;52.47
49341;BME280;35209;51.050;13.678;2023-05-25T07:46:56;100781.59;;;16.15;53.85
49341;BME280;35209;51.050;13.678;2023-05-25T07:51:58;100781.38;;;16.81;52.79
49341;BME280;35209;51.050;13.678;2023-05-25T07:57:00;100783.97;;;17.21;50.14
49341;BME280;35209;51.050;13.678;2023-05-25T08:02:02;100791.38;;;17.69;48.79
49341;BME280;35209;51.050;13.678;2023-05-25T08:07:04;100798.03;;;18.14;49.77
49341;BME280;35209;51.050;13.678;2023-05-25T08:12:06;100796.53;;;17.91;48.18
49341;BME280;35209;51.050;13.678;2023-05-25T08:17:28;100801.25;;;18.03;48.75
49341;BME280;35209;51.050;13.678;2023-05-25T08:22:29;100795.94;;;18.21;47.56
49341;BME280;35209;51.050;13.678;2023-05-25T08:27:31;100797.72;;;17.85;46.57
49341;BME280;35209;51.050;13.678;2023-05-25T08:32:36;100801.13;;;18.74;47.66
49341;BME280;35209;51.050;13.678;2023-05-25T08:37:38;100806.31;;;18.60;46.61
49341;BME280;35209;51.050;13.678;2023-05-25T08:42:44;100803.16;;;17.46;50.26
49341;BME280;35209;51.050;13.678;2023-05-25T08:47:47;100813.09;;;18.15;48.65
49341;BME280;35209;51.050;13.678;2023-05-25T08:52:50;100801.78;;;18.10;49.98
49341;BME280;35209;51.050;13.678;2023-05-25T08:57:59;100803.41;;;18.82;48.61
49341;BME280;35209;51.050;13.678;2023-05-25T09:03:06;100801.28;;;18.54;46.76
49341;BME280;35209;51.050;13.678;2023-05-25T09:08:10;100811.16;;;19.02;47.28
49341;BME280;35209;51.050;13.678;2023-05-25T09:13:12;100814.38;;;19.72;43.97
49341;BME280;35209;51.050;13.678;2023-05-25T09:18:23;100812.25;;;19.63;45.77
49341;BME280;35209;51.050;13.678;2023-05-25T09:23:25;100810.25;;;19.35;46.55
49341;BME280;35209;51.050;13.678;2023-05-25T09:28:27;100811.41;;;20.23;45.97
49341;BME280;35209;51.050;13.678;2023-05-25T09:33:29;100816.00;;;20.21;43.51
49341;BME280;35209;51.050;13.678;2023-05-25T09:38:31;100818.75;;;19.41;45.94
49341;BME280;35209;51.050;13.678;2023-05-25T09:43:34;100833.53;;;19.15;46.72
49341;BME280;35209;51.050;13.678;2023-05-25T09:48:47;100824.34;;;19.37;45.48
49341;BME280;35209;51.050;13.678;2023-05-25T09:53:50;100828.56;;;19.73;44.00
49341;BME280;35209;51.050;13.678;2023-05-25T09:58:52;100832.72;;;19.62;45.87
49341;BME280;35209;51.050;13.678;2023-05-25T10:03:55;100835.88;;;19.85;47.61
49341;BME280;35209;51.050;13.678;2023-05-25T10:09:07;100845.06;;;19.95;45.81
49341;BME280;35209;51.050;13.678;2023-05-25T10:14:14;100829.34;;;20.21;44.96
49341;BME280;35209;51.050;13.678;2023-05-25T10:19:29;100823.06;;;21.37;42.37
49341;BME280;35209;51.050;13.678;2023-05-25T10:24:42;100834.22;;;21.15;43.38
49341;BME280;35209;51.050;13.678;2023-05-25T10:29:49;100824.66;;;21.54;41.24
49341;BME280;35209;51.050;13.678;2023-05-25T10:34:51;100818.69;;;21.63;41.97
49341;BME280;35209;51.050;13.678;2023-05-25T10:39:56;100821.34;;;21.36;41.98
49341;BME280;35209;51.050;13.678;2023-05-25T10:44:58;100817.22;;;21.45;40.46
49341;BME280;35209;51.050;13.678;2023-05-25T10:50:01;100817.09;;;20.91;41.99
49341;BME280;35209;51.050;13.678;2023-05-25T10:55:04;100818.63;;;20.36;42.49
49341;BME280;35209;51.050;13.678;2023-05-25T11:00:07;100812.28;;;21.39;42.55
49341;BME280;35209;51.050;13.678;2023-05-25T11:05:39;100805.97;;;21.26;40.15
49341;BME280;35209;51.050;13.678;2023-05-25T11:26:34;100788.88;;;21.70;39.61
49341;BME280;35209;51.050;13.678;2023-05-25T11:31:36;100787.69;;;22.01;41.45
49341;BME280;35209;51.050;13.678;2023-05-25T11:36:43;100795.28;;;21.40;41.32
49341;BME280;35209;51.050;13.678;2023-05-25T11:41:48;100785.94;;;21.87;39.98
49341;BME280;35209;51.050;13.678;2023-05-25T11:46:51;100784.47;;;21.41;43.04
49341;BME280;35209;51.050;13.678;2023-05-25T11:51:55;100777.22;;;22.10;38.60
49341;BME280;35209;51.050;13.678;2023-05-25T11:56:58;100779.19;;;22.85;40.13
49341;BME280;35209;51.050;13.678;2023-05-25T12:02:02;100777.22;;;21.71;40.30
49341;BME280;35209;51.050;13.678;2023-05-25T12:07:05;100760.38;;;21.69;39.26
49341;BME280;35209;51.050;13.678;2023-05-25T12:12:08;100762.41;;;22.45;39.17
49341;BME280;35209;51.050;13.678;2023-05-25T12:17:10;100765.66;;;22.10;39.38
49341;BME280;35209;51.050;13.678;2023-05-25T12:22:12;100762.72;;;22.27;36.35
49341;BME280;35209;51.050;13.678;2023-05-25T12:27:17;100750.63;;;22.07;39.72
49341;BME280;35209;51.050;13.678;2023-05-25T12:32:19;100748.94;;;22.06;38.22
49341;BME280;35209;51.050;13.678;2023-05-25T12:37:21;100742.19;;;22.01;38.87
49341;BME280;35209;51.050;13.678;2023-05-25T12:42:24;100746.41;;;22.30;36.46
49341;BME280;35209;51.050;13.678;2023-05-25T12:47:31;100736.94;;;21.59;37.54
49341;BME280;35209;51.050;13.678;2023-05-25T12:52:42;100733.97;;;22.16;38.15
49341;BME280;35209;51.050;13.678;2023-05-25T12:57:44;100732.47;;;22.12;37.68
49341;BME280;35209;51.050;13.678;2023-05-25T13:02:49;100731.69;;;22.10;38.00
49341;BME280;35209;51.050;13.678;2023-05-25T13:07:53;100726.34;;;21.58;38.92
49341;BME280;35209;51.050;13.678;2023-05-25T13:12:55;100718.97;;;22.27;37.20
49341;BME280;35209;51.050;13.678;2023-05-25T13:17:59;100731.94;;;22.58;37.19
49341;BME280;35209;51.050;13.678;2023-05-25T13:23:01;100718.75;;;21.37;37.98
49341;BME280;35209;51.050;13.678;2023-05-25T13:28:03;100729.78;;;21.73;37.62
49341;BME280;35209;51.050;13.678;2023-05-25T13:33:07;100715.78;;;21.42;38.92
49341;BME280;35209;51.050;13.678;2023-05-25T13:38:10;100716.25;;;21.49;39.68
49341;BME280;35209;51.050;13.678;2023-05-25T13:43:15;100711.56;;;21.52;40.44
49341;BME280;35209;51.050;13.678;2023-05-25T13:48:17;100701.47;;;21.96;39.77
49341;BME280;35209;51.050;13.678;2023-05-25T13:53:20;100700.34;;;21.73;38.98
49341;BME280;35209;51.050;13.678;2023-05-25T13:58:22;100701.56;;;21.81;37.79
49341;BME280;35209;51.050;13.678;2023-05-25T14:03:25;100692.97;;;21.63;38.18
49341;BME280;35209;51.050;13.678;2023-05-25T14:08:28;100689.91;;;21.95;37.96
49341;BME280;35209;51.050;13.678;2023-05-25T14:13:31;100691.41;;;21.47;38.69
49341;BME280;35209;51.050;13.678;2023-05-25T14:18:34;100686.59;;;22.04;37.55
49341;BME280;35209;51.050;13.678;2023-05-25T14:23:36;100690.88;;;21.94;37.67
49341;BME280;35209;51.050;13.678;2023-05-25T14:28:38;100684.03;;;22.03;38.65
49341;BME280;35209;51.050;13.678;2023-05-25T14:33:40;100680.16;;;21.41;37.98
49341;BME280;35209;51.050;13.678;2023-05-25T14:38:43;100682.47;;;21.33;39.11
49341;BME280;35209;51.050;13.678;2023-05-25T14:43:45;100676.41;;;21.31;38.43
49341;BME280;35209;51.050;13.678;2023-05-25T14:48:47;100680.47;;;21.37;38.32
49341;BME280;35209;51.050;13.678;2023-05-25T14:53:50;100677.22;;;22.37;35.99
49341;BME280;35209;51.050;13.678;2023-05-25T14:58:54;100678.41;;;22.82;36.51
49341;BME280;35209;51.050;13.678;2023-05-25T15:03:56;100681.28;;;22.17;35.94
49341;BME280;35209;51.050;13.678;2023-05-25T15:08:58;100670.53;;;22.55;36.53
49341;BME280;35209;51.050;13.678;2023-05-25T15:14:00;100672.06;;;22.83;37.16
49341;BME280;35209;51.050;13.678;2023-05-25T15:19:02;100676.88;;;22.54;36.75
49341;BME280;35209;51.050;13.678;2023-05-25T15:24:04;100680.34;;;22.18;36.94
49341;BME280;35209;51.050;13.678;2023-05-25T15:29:07;100685.59;;;22.82;36.69
49341;BME280;35209;51.050;13.678;2023-05-25T15:34:09;100676.97;;;21.89;38.49
49341;BME280;35209;51.050;13.678;2023-05-25T15:39:12;100674.84;;;22.45;37.70
49341;BME280;35209;51.050;13.678;2023-05-25T15:44:17;100664.94;;;23.56;35.98
49341;BME280;35209;51.050;13.678;2023-05-25T15:49:19;100660.78;;;23.28;35.86
49341;BME280;35209;51.050;13.678;2023-05-25T15:54:21;100662.28;;;21.82;38.84
49341;BME280;35209;51.050;13.678;2023-05-25T15:59:24;100654.78;;;21.74;38.79
49341;BME280;35209;51.050;13.678;2023-05-25T16:04:35;100649.53;;;21.33;39.12
49341;BME280;35209;51.050;13.678;2023-05-25T16:09:36;100637.91;;;20.92;40.37
49341;BME280;35209;51.050;13.678;2023-05-25T16:14:38;100638.53;;;21.10;40.06
49341;BME280;35209;51.050;13.678;2023-05-25T16:19:41;100642.66;;;21.29;40.11
49341;BME280;35209;51.050;13.678;2023-05-25T16:24:42;100630.06;;;20.62;40.52
49341;BME280;35209;51.050;13.678;2023-05-25T16:29:44;100639.63;;;20.94;41.04
49341;BME280;35209;51.050;13.678;2023-05-25T16:34:46;100632.63;;;21.05;40.00
49341;BME280;35209;51.050;13.678;2023-05-25T16:39:47;100639.44;;;20.97;40.70
49341;BME280;35209;51.050;13.678;2023-05-25T16:44:57;100636.84;;;20.68;41.48
49341;BME280;35209;51.050;13.678;2023-05-25T16:49:59;100632.50;;;20.10;40.92
49341;BME280;35209;51.050;13.678;2023-05-25T16:55:01;100628.66;;;20.28;41.67
49341;BME280;35209;51.050;13.678;2023-05-25T17:00:03;100624.09;;;20.16;41.72
49341;BME280;35209;51.050;13.678;2023-05-25T17:05:06;100621.53;;;20.14;41.86
49341;BME280;35209;51.050;13.678;2023-05-25T17:10:09;100626.91;;;19.70;42.72
49341;BME280;35209;51.050;13.678;2023-05-25T17:15:11;100627.56;;;19.74;41.53
49341;BME280;35209;51.050;13.678;2023-05-25T17:20:16;100623.41;;;19.54;43.42
49341;BME280;35209;51.050;13.678;2023-05-25T17:25:18;100628.63;;;19.55;43.03
49341;BME280;35209;51.050;13.678;2023-05-25T17:30:20;100634.44;;;19.18;44.23
49341;BME280;35209;51.050;13.678;2023-05-25T17:35:22;100630.94;;;19.01;44.23
49341;BME280;35209;51.050;13.678;2023-05-25T17:40:23;100634.88;;;18.94;45.79
49341;BME280;35209;51.050;13.678;2023-05-25T17:45:25;100633.84;;;19.12;44.44
49341;BME280;35209;51.050;13.678;2023-05-25T17:50:27;100634.53;;;19.00;45.00
49341;BME280;35209;51.050;13.678;2023-05-25T17:55:29;100637.47;;;18.80;45.66
49341;BME280;35209;51.050;13.678;2023-05-25T18:00:30;100638.00;;;18.71;46.34
49341;BME280;35209;51.050;13.678;2023-05-25T18:05:32;100641.81;;;18.49;46.13
49341;BME280;35209;51.050;13.678;2023-05-25T18:10:34;100637.13;;;18.37;46.07
49341;BME280;35209;51.050;13.678;2023-05-25T18:15:36;100640.03;;;18.17;46.85
49341;BME280;35209;51.050;13.678;2023-05-25T18:20:37;100648.25;;;18.12;47.18
49341;BME280;35209;51.050;13.678;2023-05-25T18:25:39;100656.41;;;18.09;47.96
49341;BME280;35209;51.050;13.678;2023-05-25T18:30:41;100653.22;;;18.02;47.89
49341;BME280;35209;51.050;13.678;2023-05-25T18:35:43;100654.81;;;17.89;48.05
49341;BME280;35209;51.050;13.678;2023-05-25T18:40:45;100651.28;;;17.71;48.70
49341;BME280;35209;51.050;13.678;2023-05-25T18:45:47;100659.41;;;17.68;49.09
49341;BME280;35209;51.050;13.678;2023-05-25T18:50:49;100659.72;;;17.45;50.91
49341;BME280;35209;51.050;13.678;2023-05-25T18:55:51;100670.22;;;17.29;50.65
49341;BME280;35209;51.050;13.678;2023-05-25T19:00:52;100676.53;;;17.09;50.97
49341;BME280;35209;51.050;13.678;2023-05-25T19:05:54;100682.47;;;16.95;51.59
49341;BME280;35209;51.050;13.678;2023-05-25T19:10:56;100685.16;;;16.76;52.19
49341;BME280;35209;51.050;13.678;2023-05-25T19:15:58;100682.69;;;16.72;52.73
49341;BME280;35209;51.050;13.678;2023-05-25T19:21:00;100692.41;;;16.73;53.00
49341;BME280;35209;51.050;13.678;2023-05-25T19:26:02;100700.09;;;16.39;54.25
49341;BME280;35209;51.050;13.678;2023-05-25T19:31:04;100701.66;;;16.25;55.55
49341;BME280;35209;51.050;13.678;2023-05-25T19:36:06;100718.88;;;16.35;55.92
49341;BME280;35209;51.050;13.678;2023-05-25T19:41:08;100722.72;;;16.28;55.93
49341;BME280;35209;51.050;13.678;2023-05-25T19:46:10;100719.94;;;16.31;56.10
49341;BME280;35209;51.050;13.678;2023-05-25T19:51:12;100719.16;;;16.08;57.39
49341;BME280;35209;51.050;13.678;2023-05-25T19:56:14;100722.75;;;16.07;57.25
49341;BME280;35209;51.050;13.678;2023-05-25T20:01:15;100735.81;;;15.92;58.48
49341;BME280;35209;51.050;13.678;2023-05-25T20:06:17;100733.22;;;15.90;58.42
49341;BME280;35209;51.050;13.678;2023-05-25T20:11:19;100730.78;;;15.63;60.03
49341;BME280;35209;51.050;13.678;2023-05-25T20:16:21;100736.03;;;15.65;59.75
49341;BME280;35209;51.050;13.678;2023-05-25T20:21:23;100750.75;;;15.50;60.25
49341;BME280;35209;51.050;13.678;2023-05-25T20:26:25;100751.53;;;15.52;60.79
49341;BME280;35209;51.050;13.678;2023-05-25T20:31:28;100758.72;;;15.50;60.58
49341;BME280;35209;51.050;13.678;2023-05-25T20:36:30;100759.97;;;15.40;60.79
49341;BME280;35209;51.050;13.678;2023-05-25T20:41:33;100766.69;;;15.27;61.40
49341;BME280;35209;51.050;13.678;2023-05-25T20:46:35;100758.19;;;14.97;62.37
49341;BME280;35209;51.050;13.678;2023-05-25T20:51:37;100765.94;;;15.01;62.88
49341;BME280;35209;51.050;13.678;2023-05-25T20:56:38;100767.06;;;15.18;61.69
49341;BME280;35209;51.050;13.678;2023-05-25T21:01:40;100764.53;;;15.14;61.26
49341;BME280;35209;51.050;13.678;2023-05-25T21:06:42;100784.81;;;14.92;62.31
49341;BME280;35209;51.050;13.678;2023-05-25T21:11:44;100780.34;;;14.71;63.61
49341;BME280;35209;51.050;13.678;2023-05-25T21:16:46;100786.59;;;14.68;64.10
49341;BME280;35209;51.050;13.678;2023-05-25T21:21:47;100793.25;;;14.55;64.33
49341;BME280;35209;51.050;13.678;2023-05-25T21:26:49;100793.88;;;14.36;65.38
49341;BME280;35209;51.050;13.678;2023-05-25T21:31:51;100791.63;;;14.51;64.85
49341;BME280;35209;51.050;13.678;2023-05-25T21:36:53;100794.78;;;14.35;65.42
49341;BME280;35209;51.050;13.678;2023-05-25T21:41:55;100804.53;;;14.33;65.01
49341;BME280;35209;51.050;13.678;2023-05-25T21:46:57;100802.19;;;14.26;65.28
49341;BME280;35209;51.050;13.678;2023-05-25T21:51:59;100795.91;;;14.03;66.86
49341;BME280;35209;51.050;13.678;2023-05-25T21:57:01;100803.63;;;13.83;67.59
49341;BME280;35209;51.050;13.678;2023-05-25T22:02:04;100810.72;;;14.07;66.50
49341;BME280;35209;51.050;13.678;2023-05-25T22:07:06;100812.34;;;13.86;66.99
49341;BME280;35209;51.050;13.678;2023-05-25T22:12:10;100815.69;;;13.92;66.70
49341;BME280;35209;51.050;13.678;2023-05-25T22:17:12;100819.66;;;14.05;66.10
49341;BME280;35209;51.050;13.678;2023-05-25T22:22:15;100824.78;;;14.09;65.62
49341;BME280;35209;51.050;13.678;2023-05-25T22:27:17;100818.88;;;14.01;66.43
49341;BME280;35209;51.050;13.678;2023-05-25T22:32:19;100819.81;;;14.00;66.56
49341;BME280;35209;51.050;13.678;2023-05-25T22:37:21;100822.75;;;13.91;67.14
49341;BME280;35209;51.050;13.678;2023-05-25T22:42:22;100830.94;;;13.55;68.92
49341;BME280;35209;51.050;13.678;2023-05-25T22:47:24;100835.03;;;13.36;71.10
49341;BME280;35209;51.050;13.678;2023-05-25T22:52:26;100835.31;;;13.56;69.93
49341;BME280;35209;51.050;13.678;2023-05-25T22:57:28;100832.75;;;13.53;70.06
49341;BME280;35209;51.050;13.678;2023-05-25T23:02:30;100839.44;;;13.37;70.98
49341;BME280;35209;51.050;13.678;2023-05-25T23:07:32;100837.81;;;13.33;71.43
49341;BME280;35209;51.050;13.678;2023-05-25T23:12:34;100840.31;;;13.37;71.97
49341;BME280;35209;51.050;13.678;2023-05-25T23:17:36;100836.03;;;13.02;73.72
49341;BME280;35209;51.050;13.678;2023-05-25T23:22:38;100830.91;;;12.96;74.21
49341;BME280;35209;51.050;13.678;2023-05-25T23:27:39;100840.75;;;12.91;75.67
49341;BME280;35209;51.050;13.678;2023-05-25T23:32:41;100844.97;;;12.97;76.24
49341;BME280;35209;51.050;13.678;2023-05-25T23:37:43;100832.28;;;12.80;76.70
49341;BME280;35209;51.050;13.678;2023-05-25T23:42:45;100839.69;;;12.66;78.29
49341;BME280;35209;51.050;13.678;2023-05-25T23:47:46;100830.38;;;12.54;79.00
49341;BME280;35209;51.050;13.678;2023-05-25T23:52:48;100831.13;;;12.25;81.08
49341;BME280;35209;51.050;13.678;2023-05-25T23:57:50;100835.53;;;12.24;80.99
